createdAt,value
2022-09-05T00:00:30.692Z,18.07
2022-09-05T00:01:30.682Z,18.10
2022-09-05T00:02:30.794Z,18.11
2022-09-05T00:03:31.078Z,18.12
2022-09-05T00:04:30.772Z,18.12
2022-09-05T00:05:30.633Z,18.12
2022-09-05T00:06:30.633Z,18.10
2022-09-05T00:07:58.364Z,18.10
2022-09-05T00:08:31.623Z,18.11
2022-09-05T00:09:30.599Z,18.10
2022-09-05T00:10:37.555Z,18.11
2022-09-05T00:11:42.401Z,18.12
2022-09-05T00:12:31.826Z,18.12
2022-09-05T00:13:30.574Z,18.14
2022-09-05T00:14:36.728Z,18.11
2022-09-05T00:15:31.530Z,18.10
2022-09-05T00:16:30.607Z,18.08
2022-09-05T00:17:52.694Z,18.05
2022-09-05T00:23:29.104Z,18.05
2022-09-05T00:24:18.889Z,18.05
2022-09-05T00:24:19.596Z,18.07
2022-09-05T00:24:27.138Z,18.07
2022-09-05T00:24:30.905Z,18.07
2022-09-05T00:24:31.279Z,18.05
2022-09-05T00:24:54.713Z,18.05
2022-09-05T00:25:32.634Z,18.03
2022-09-05T00:26:30.406Z,18.03
2022-09-05T00:27:30.414Z,18.02
2022-09-05T00:28:30.379Z,18.02
2022-09-05T00:30:34.977Z,18.05
2022-09-05T00:31:50.682Z,18.05
2022-09-05T00:31:54.977Z,18.07
2022-09-05T00:32:31.368Z,18.07
2022-09-05T00:33:30.576Z,18.10
2022-09-05T00:34:47.422Z,18.10
2022-09-05T00:35:31.280Z,18.10
2022-09-05T00:36:30.293Z,18.11
2022-09-05T00:37:30.265Z,18.10
2022-09-05T00:38:36.417Z,18.10
2022-09-05T00:39:31.280Z,18.10
2022-09-05T00:40:30.311Z,18.10
2022-09-05T00:41:34.175Z,18.10
2022-09-05T00:42:30.205Z,18.10
2022-09-05T00:43:30.221Z,18.05
2022-09-05T00:44:30.192Z,18.07
2022-09-05T00:45:30.162Z,18.05
2022-09-05T00:46:31.876Z,18.03
2022-09-05T00:47:30.161Z,18.03
2022-09-05T00:48:30.173Z,18.03
2022-09-05T00:49:30.123Z,18.00
2022-09-05T00:50:30.115Z,17.99
2022-09-05T00:51:34.439Z,17.95
2022-09-05T00:52:31.083Z,17.93
2022-09-05T00:53:30.095Z,17.93
2022-09-05T00:54:40.694Z,17.92
2022-09-05T00:55:31.054Z,17.87
2022-09-05T00:56:30.044Z,17.87
2022-09-05T00:57:30.059Z,17.84
2022-09-05T00:58:33.796Z,17.79
2022-09-05T00:59:30.013Z,17.78
2022-09-05T01:00:29.985Z,17.77
2022-09-05T01:01:30.054Z,17.74
2022-09-05T01:02:30.047Z,17.71
2022-09-05T01:03:29.965Z,17.71
2022-09-05T01:04:29.956Z,17.71
2022-09-05T01:05:29.944Z,17.70
2022-09-05T01:06:29.925Z,17.70
2022-09-05T01:07:29.947Z,17.66
2022-09-05T01:08:29.943Z,17.66
2022-09-05T01:09:29.896Z,17.63
2022-09-05T01:10:29.875Z,17.62
2022-09-05T01:11:29.870Z,17.62
2022-09-05T01:12:29.857Z,17.62
2022-09-05T01:13:29.850Z,17.62
2022-09-05T01:14:29.869Z,17.59
2022-09-05T01:15:32.803Z,17.63
2022-09-05T01:16:29.866Z,17.56
2022-09-05T01:17:29.797Z,17.56
2022-09-05T01:18:29.811Z,17.58
2022-09-05T01:19:29.783Z,17.58
2022-09-05T01:20:32.064Z,17.56
2022-09-05T01:21:29.757Z,17.55
2022-09-05T01:22:29.740Z,17.54
2022-09-05T01:23:29.745Z,17.52
2022-09-05T01:24:29.708Z,17.51
2022-09-05T01:25:29.700Z,17.51
2022-09-05T01:26:29.681Z,17.48
2022-09-05T01:27:31.432Z,17.51
2022-09-05T01:29:14.464Z,17.48
2022-09-05T01:29:30.683Z,17.46
2022-09-05T01:30:32.186Z,17.43
2022-09-05T01:31:29.694Z,17.43
2022-09-05T01:32:29.654Z,17.43
2022-09-05T01:33:29.615Z,17.41
2022-09-05T01:34:31.799Z,17.38
2022-09-05T01:35:29.592Z,17.38
2022-09-05T01:36:30.563Z,17.36
2022-09-05T01:37:34.050Z,17.34
2022-09-05T01:38:29.576Z,17.34
2022-09-05T01:40:04.469Z,17.34
2022-09-05T01:40:30.603Z,17.33
2022-09-05T01:41:29.537Z,17.31
2022-09-05T01:42:29.517Z,17.30
2022-09-05T01:43:29.527Z,17.25
2022-09-05T01:44:29.464Z,17.23
2022-09-05T01:45:39.693Z,17.22
2022-09-05T01:46:30.514Z,17.19
2022-09-05T01:47:31.308Z,17.18
2022-09-05T01:48:29.434Z,17.16
2022-09-05T01:49:29.699Z,17.14
2022-09-05T01:50:29.397Z,17.15
2022-09-05T01:51:31.609Z,17.15
2022-09-05T01:52:29.385Z,17.15
2022-09-05T01:53:29.379Z,17.14
2022-09-05T01:54:29.742Z,17.14
2022-09-05T01:55:29.335Z,17.14
2022-09-05T01:56:29.332Z,17.08
2022-09-05T01:57:29.309Z,17.08
2022-09-05T01:58:29.320Z,17.08
2022-09-05T01:59:29.290Z,17.07
2022-09-05T02:00:29.313Z,17.08
2022-09-05T02:01:32.554Z,17.06
2022-09-05T02:02:29.380Z,17.07
2022-09-05T02:03:29.259Z,17.04
2022-09-05T02:04:29.238Z,17.01
2022-09-05T02:05:47.610Z,17.01
2022-09-05T02:06:30.201Z,17.04
2022-09-05T02:07:30.938Z,17.06
2022-09-05T02:08:29.208Z,17.04
2022-09-05T02:09:29.180Z,17.03
2022-09-05T02:10:29.169Z,17.03
2022-09-05T02:11:36.029Z,17.01
2022-09-05T02:12:30.131Z,17.01
2022-09-05T02:13:29.140Z,17.00
2022-09-05T02:14:34.166Z,16.98
2022-09-05T02:15:30.152Z,16.96
2022-09-05T02:16:29.094Z,16.96
2022-09-05T02:17:50.022Z,16.96
2022-09-05T02:18:30.072Z,16.93
2022-09-05T02:19:29.061Z,16.94
2022-09-05T02:20:29.042Z,16.96
2022-09-05T02:21:29.041Z,16.94
2022-09-05T02:22:29.005Z,16.94
2022-09-05T02:23:40.663Z,16.93
2022-09-05T02:24:29.984Z,16.93
2022-09-05T02:26:01.362Z,16.91
2022-09-05T02:26:29.961Z,16.91
2022-09-05T02:28:02.110Z,16.91
2022-09-05T02:28:29.944Z,16.89
2022-09-05T02:29:29.988Z,16.91
2022-09-05T02:30:28.936Z,16.89
2022-09-05T02:31:29.027Z,16.89
2022-09-05T02:32:28.885Z,16.89
2022-09-05T02:33:28.899Z,16.88
2022-09-05T02:34:28.874Z,16.89
2022-09-05T02:35:28.857Z,16.89
2022-09-05T02:36:28.853Z,16.91
2022-09-05T02:40:07.813Z,16.93
2022-09-05T02:40:53.546Z,16.94
2022-09-05T02:45:04.285Z,16.91
2022-09-05T02:45:08.249Z,16.91
2022-09-05T02:45:08.640Z,16.94
2022-09-05T02:45:19.000Z,16.91
2022-09-05T02:45:19.009Z,16.91
2022-09-05T02:45:20.264Z,16.91
2022-09-05T02:45:30.449Z,16.89
2022-09-05T02:46:28.779Z,16.89
2022-09-05T02:47:28.708Z,16.86
2022-09-05T02:48:28.738Z,16.86
2022-09-05T02:51:01.212Z,16.81
2022-09-05T02:54:54.157Z,16.79
2022-09-05T02:57:25.700Z,16.78
2022-09-05T02:57:29.697Z,16.78
2022-09-05T02:57:36.183Z,16.75
2022-09-05T02:57:38.990Z,16.76
2022-09-05T02:57:40.977Z,16.78
2022-09-05T02:57:42.313Z,16.79
2022-09-05T02:58:05.404Z,16.75
2022-09-05T02:58:47.819Z,16.73
2022-09-05T02:59:36.475Z,16.71
2022-09-05T03:00:29.558Z,16.73
2022-09-05T03:01:28.573Z,16.73
2022-09-05T03:02:28.600Z,16.75
2022-09-05T03:03:28.517Z,16.75
2022-09-05T03:04:28.761Z,16.73
2022-09-05T03:05:28.782Z,16.75
2022-09-05T03:06:34.402Z,16.75
2022-09-05T03:07:29.487Z,16.75
2022-09-05T03:08:28.464Z,16.73
2022-09-05T03:09:28.443Z,16.67
2022-09-05T03:10:53.164Z,16.68
2022-09-05T03:11:29.428Z,16.68
2022-09-05T03:12:29.861Z,16.67
2022-09-05T03:13:28.394Z,16.64
2022-09-05T03:14:28.377Z,16.61
2022-09-05T03:15:28.391Z,16.60
2022-09-05T03:16:28.379Z,16.57
2022-09-05T03:17:28.354Z,16.57
2022-09-05T03:18:28.399Z,16.56
2022-09-05T03:19:28.335Z,16.50
2022-09-05T03:20:28.308Z,16.50
2022-09-05T03:21:28.331Z,16.46
2022-09-05T03:22:28.318Z,16.48
2022-09-05T03:23:33.190Z,16.45
2022-09-05T03:24:29.266Z,16.43
2022-09-05T03:25:28.276Z,16.42
2022-09-05T03:26:28.243Z,16.39
2022-09-05T03:27:29.405Z,16.35
2022-09-05T03:28:28.498Z,16.34
2022-09-05T03:29:28.207Z,16.33
2022-09-05T03:30:28.289Z,16.33
2022-09-05T03:31:28.192Z,16.31
2022-09-05T03:32:28.199Z,16.30
2022-09-05T03:33:28.171Z,16.27
2022-09-05T03:34:28.140Z,16.25
2022-09-05T03:35:28.224Z,16.27
2022-09-05T03:36:28.419Z,16.25
2022-09-05T03:37:28.119Z,16.23
2022-09-05T03:38:28.088Z,16.21
2022-09-05T03:39:28.403Z,16.20
2022-09-05T03:40:28.084Z,16.23
2022-09-05T03:41:36.771Z,16.23
2022-09-05T03:42:31.015Z,16.24
2022-09-05T03:43:28.036Z,16.23
2022-09-05T03:44:28.032Z,16.23
2022-09-05T03:45:36.395Z,16.21
2022-09-05T03:46:29.057Z,16.21
2022-09-05T03:47:27.999Z,16.20
2022-09-05T03:48:29.277Z,16.23
2022-09-05T03:53:42.099Z,16.24
2022-09-05T03:53:45.293Z,16.23
2022-09-05T03:57:12.568Z,16.24
2022-09-05T03:57:20.203Z,16.24
2022-09-05T03:57:23.100Z,16.24
2022-09-05T03:57:24.925Z,16.28
2022-09-05T03:57:27.025Z,16.27
2022-09-05T03:57:27.818Z,16.30
2022-09-05T03:57:41.431Z,16.31
2022-09-05T03:58:55.267Z,16.34
2022-09-05T03:59:29.136Z,16.33
2022-09-05T04:00:27.841Z,16.33
2022-09-05T04:04:00.312Z,16.34
2022-09-05T04:06:11.667Z,16.35
2022-09-05T04:08:06.857Z,16.35
2022-09-05T04:08:10.478Z,16.35
2022-09-05T04:08:15.212Z,16.34
2022-09-05T04:08:16.802Z,16.35
2022-09-05T04:08:27.683Z,16.34
2022-09-05T04:08:38.555Z,16.34
2022-09-05T04:09:49.296Z,16.33
2022-09-05T04:10:28.761Z,16.33
2022-09-05T04:11:27.694Z,16.33
2022-09-05T04:12:27.697Z,16.33
2022-09-05T04:13:27.678Z,16.31
2022-09-05T04:14:27.927Z,16.30
2022-09-05T04:15:27.667Z,16.31
2022-09-05T04:16:27.676Z,16.30
2022-09-05T04:17:27.656Z,16.31
2022-09-05T04:18:33.891Z,16.30
2022-09-05T04:19:28.612Z,16.30
2022-09-05T04:20:27.877Z,16.28
2022-09-05T04:21:27.595Z,16.28
2022-09-05T04:22:27.557Z,16.27
2022-09-05T04:23:27.588Z,16.27
2022-09-05T04:24:27.581Z,16.28
2022-09-05T04:25:27.530Z,16.27
2022-09-05T04:26:27.517Z,16.27
2022-09-05T04:27:28.031Z,16.25
2022-09-05T04:28:27.511Z,16.25
2022-09-05T04:29:27.490Z,16.23
2022-09-05T04:30:37.983Z,16.23
2022-09-05T04:31:28.522Z,16.20
2022-09-05T04:32:27.514Z,16.17
2022-09-05T04:33:36.197Z,16.15
2022-09-05T04:34:28.690Z,16.15
2022-09-05T04:35:27.437Z,16.12
2022-09-05T04:36:27.399Z,16.14
2022-09-05T04:37:27.416Z,16.12
2022-09-05T04:38:28.393Z,16.12
2022-09-05T04:39:27.481Z,16.11
2022-09-05T04:40:30.934Z,16.11
2022-09-05T04:41:39.940Z,16.12
2022-09-05T04:42:28.354Z,16.11
2022-09-05T04:43:27.328Z,16.11
2022-09-05T04:44:27.322Z,16.11
2022-09-05T04:45:27.311Z,16.11
2022-09-05T04:46:27.573Z,16.11
2022-09-05T04:47:27.316Z,16.11
2022-09-05T04:48:27.539Z,16.11
2022-09-05T04:49:27.262Z,16.08
2022-09-05T04:50:27.234Z,16.08
2022-09-05T04:51:28.233Z,16.08
2022-09-05T04:52:31.618Z,16.07
2022-09-05T04:53:27.212Z,16.07
2022-09-05T04:54:27.624Z,16.05
2022-09-05T04:55:27.206Z,16.04
2022-09-05T04:56:27.185Z,16.04
2022-09-05T04:57:27.182Z,16.05
2022-09-05T04:58:27.499Z,16.05
2022-09-05T05:02:16.422Z,16.05
2022-09-05T05:05:59.751Z,16.05
2022-09-05T05:06:01.097Z,16.05
2022-09-05T05:06:12.588Z,16.04
2022-09-05T05:06:13.107Z,16.08
2022-09-05T05:06:18.898Z,16.08
2022-09-05T05:06:19.102Z,16.07
2022-09-05T05:06:46.435Z,16.09
2022-09-05T05:07:28.128Z,16.08
2022-09-05T05:08:28.992Z,16.08
2022-09-05T05:09:28.036Z,16.09
2022-09-05T05:12:37.777Z,16.11
2022-09-05T05:17:54.302Z,16.09
2022-09-05T05:17:54.384Z,16.08
2022-09-05T05:17:54.907Z,16.11
2022-09-05T05:18:06.384Z,16.12
2022-09-05T05:18:11.490Z,16.09
2022-09-05T05:18:11.661Z,16.12
2022-09-05T05:18:16.107Z,16.12
2022-09-05T05:18:41.225Z,16.15
2022-09-05T05:19:27.977Z,16.15
2022-09-05T05:20:42.673Z,16.15
2022-09-05T05:21:27.892Z,16.15
2022-09-05T05:22:26.899Z,16.15
2022-09-05T05:23:26.869Z,16.20
2022-09-05T05:24:26.860Z,16.15
2022-09-05T05:25:26.866Z,16.17
2022-09-05T05:26:26.848Z,16.17
2022-09-05T05:27:26.848Z,16.17
2022-09-05T05:28:26.881Z,16.20
2022-09-05T05:29:26.819Z,16.21
2022-09-05T05:30:26.789Z,16.21
2022-09-05T05:31:26.818Z,16.21
2022-09-05T05:32:45.023Z,16.23
2022-09-05T05:33:27.772Z,16.24
2022-09-05T05:34:26.763Z,16.27
2022-09-05T05:35:26.760Z,16.27
2022-09-05T05:36:26.753Z,16.28
2022-09-05T05:37:26.723Z,16.28
2022-09-05T05:38:26.843Z,16.28
2022-09-05T05:39:26.739Z,16.28
2022-09-05T05:40:26.692Z,16.30
2022-09-05T05:41:26.686Z,16.31
2022-09-05T05:42:27.603Z,16.33
2022-09-05T05:43:26.666Z,16.33
2022-09-05T05:44:26.644Z,16.34
2022-09-05T05:45:26.639Z,16.38
2022-09-05T05:46:26.731Z,16.41
2022-09-05T05:47:28.421Z,16.43
2022-09-05T05:48:27.583Z,16.45
2022-09-05T05:49:26.584Z,16.48
2022-09-05T05:50:26.562Z,16.48
2022-09-05T05:51:34.592Z,16.50
2022-09-05T05:52:27.563Z,16.50
2022-09-05T05:53:30.389Z,16.53
2022-09-05T05:54:27.526Z,16.56
2022-09-05T05:55:51.165Z,16.53
2022-09-05T05:56:27.516Z,16.57
2022-09-05T05:57:26.505Z,16.58
2022-09-05T05:58:26.571Z,16.57
2022-09-05T05:59:27.486Z,16.58
2022-09-05T06:00:28.062Z,16.60
2022-09-05T06:01:37.289Z,16.64
2022-09-05T06:02:27.637Z,16.66
2022-09-05T06:03:27.647Z,16.67
2022-09-05T06:04:26.414Z,16.68
2022-09-05T06:05:26.439Z,16.70
2022-09-05T06:06:26.408Z,16.73
2022-09-05T06:07:26.369Z,16.76
2022-09-05T06:11:57.031Z,16.79
2022-09-05T06:14:07.875Z,16.79
2022-09-05T06:14:50.078Z,16.82
2022-09-05T06:14:57.485Z,16.91
2022-09-05T06:14:58.707Z,16.91
2022-09-05T06:14:59.472Z,16.96
2022-09-05T06:15:01.459Z,16.86
2022-09-05T06:15:28.304Z,16.98
2022-09-05T06:16:26.340Z,17.01
2022-09-05T06:17:28.373Z,17.04
2022-09-05T06:18:26.258Z,17.07
2022-09-05T06:19:28.875Z,17.12
2022-09-05T06:22:04.146Z,17.15
2022-09-05T06:22:10.954Z,17.19
2022-09-05T06:22:27.230Z,17.22
2022-09-05T06:23:38.637Z,17.30
2022-09-05T06:24:27.191Z,17.33
2022-09-05T06:25:26.465Z,17.38
2022-09-05T06:26:26.184Z,17.43
2022-09-05T06:27:26.192Z,17.46
2022-09-05T06:28:26.134Z,17.51
2022-09-05T06:29:38.086Z,17.54
2022-09-05T06:30:27.142Z,17.59
2022-09-05T06:31:30.255Z,17.64
2022-09-05T06:32:27.133Z,17.70
2022-09-05T06:33:26.254Z,17.77
2022-09-05T06:34:32.771Z,17.81
2022-09-05T06:35:27.074Z,17.86
2022-09-05T06:36:26.314Z,17.92
2022-09-05T06:37:26.073Z,17.97
2022-09-05T06:38:26.015Z,18.02
2022-09-05T06:39:26.081Z,18.05
2022-09-05T06:40:30.248Z,18.07
2022-09-05T06:41:26.988Z,18.10
2022-09-05T06:42:42.605Z,18.12
2022-09-05T06:43:26.968Z,18.12
2022-09-05T06:44:26.274Z,18.15
2022-09-05T06:45:27.516Z,18.17
2022-09-05T06:46:54.723Z,18.21
2022-09-05T06:47:34.318Z,18.27
2022-09-05T06:48:44.791Z,18.32
2022-09-05T06:49:32.301Z,18.36
2022-09-05T06:50:28.055Z,18.41
2022-09-05T06:51:25.866Z,18.47
2022-09-05T06:52:29.698Z,18.50
2022-09-05T06:53:25.878Z,18.55
2022-09-05T06:54:25.844Z,18.60
2022-09-05T06:55:25.817Z,18.62
2022-09-05T06:56:26.603Z,18.65
2022-09-05T06:57:25.802Z,18.67
2022-09-05T06:58:25.808Z,18.70
2022-09-05T06:59:25.789Z,18.75
2022-09-05T07:00:25.778Z,18.78
2022-09-05T07:01:25.903Z,18.82
2022-09-05T07:02:28.625Z,18.88
2022-09-05T07:03:26.952Z,18.92
2022-09-05T07:05:23.505Z,18.99
2022-09-05T07:05:39.691Z,19.04
2022-09-05T07:06:41.395Z,19.07
2022-09-05T07:07:27.565Z,19.10
2022-09-05T07:08:35.309Z,19.16
2022-09-05T07:09:28.608Z,19.19
2022-09-05T07:10:38.441Z,19.22
2022-09-05T07:11:26.646Z,19.26
2022-09-05T07:12:25.665Z,19.29
2022-09-05T07:13:25.800Z,19.36
2022-09-05T07:14:25.605Z,19.41
2022-09-05T07:15:25.592Z,19.47
2022-09-05T07:16:37.345Z,19.51
2022-09-05T07:17:26.583Z,19.58
2022-09-05T07:18:25.569Z,19.61
2022-09-05T07:19:25.553Z,19.63
2022-09-05T07:20:25.571Z,19.65
2022-09-05T07:21:26.513Z,19.68
2022-09-05T07:22:45.966Z,19.76
2022-09-05T07:23:47.689Z,19.81
2022-09-05T07:24:29.757Z,19.84
2022-09-05T07:25:26.779Z,19.88
2022-09-05T07:26:38.017Z,19.92
2022-09-05T07:27:26.479Z,19.95
2022-09-05T07:28:28.601Z,20.01
2022-09-05T07:29:25.446Z,20.05
2022-09-05T07:30:25.482Z,20.08
2022-09-05T07:31:31.657Z,20.11
2022-09-05T07:32:26.436Z,20.17
2022-09-05T07:33:25.564Z,20.28
2022-09-05T07:34:25.386Z,20.36
2022-09-05T07:35:25.398Z,20.41
2022-09-05T07:36:25.361Z,20.42
2022-09-05T07:37:25.370Z,20.47
2022-09-05T07:38:38.069Z,20.52
2022-09-05T07:39:29.182Z,20.58
2022-09-05T07:40:26.843Z,20.64
2022-09-05T07:41:25.313Z,20.69
2022-09-05T07:42:25.345Z,20.76
2022-09-05T07:43:25.290Z,20.84
2022-09-05T07:44:25.299Z,20.92
2022-09-05T07:45:25.350Z,21.06
2022-09-05T07:46:25.256Z,21.14
2022-09-05T07:47:25.250Z,21.22
2022-09-05T07:48:35.211Z,21.27
2022-09-05T07:49:26.234Z,21.29
2022-09-05T07:55:45.084Z,21.29
2022-09-05T07:56:47.272Z,21.32
2022-09-05T07:56:50.997Z,21.32
2022-09-05T07:56:51.465Z,21.32
2022-09-05T07:56:59.807Z,21.35
2022-09-05T07:57:00.081Z,21.34
2022-09-05T07:57:00.272Z,21.38
2022-09-05T07:57:31.410Z,21.47
2022-09-05T07:58:26.142Z,21.56
2022-09-05T07:59:25.128Z,21.67
2022-09-05T08:00:26.637Z,21.71
2022-09-05T08:01:25.137Z,21.75
2022-09-05T08:02:25.134Z,21.79
2022-09-05T08:03:25.104Z,21.83
2022-09-05T08:04:25.057Z,21.84
2022-09-05T08:05:34.676Z,21.90
2022-09-05T08:06:50.708Z,21.92
2022-09-05T08:07:47.962Z,21.94
2022-09-05T08:08:26.012Z,22.00
2022-09-05T08:10:06.686Z,22.02
2022-09-05T08:10:31.037Z,22.03
2022-09-05T08:11:27.822Z,22.05
2022-09-05T08:12:27.935Z,22.09
2022-09-05T08:13:27.356Z,22.17
2022-09-05T08:14:43.518Z,22.22
2022-09-05T08:15:25.914Z,22.21
2022-09-05T08:16:26.007Z,22.20
2022-09-05T08:17:27.490Z,22.22
2022-09-05T08:18:25.909Z,22.27
2022-09-05T08:19:24.876Z,22.31
2022-09-05T08:20:24.866Z,22.40
2022-09-05T08:21:27.767Z,22.45
2022-09-05T08:22:24.830Z,22.49
2022-09-05T08:23:25.541Z,22.51
2022-09-05T08:24:25.091Z,22.54
2022-09-05T08:25:24.813Z,22.58
2022-09-05T08:26:24.780Z,22.60
2022-09-05T08:27:24.808Z,22.60
2022-09-05T08:28:24.867Z,22.57
2022-09-05T08:29:25.784Z,22.58
2022-09-05T08:30:27.669Z,22.61
2022-09-05T08:31:24.777Z,22.64
2022-09-05T08:32:24.728Z,22.68
2022-09-05T08:33:24.716Z,22.73
2022-09-05T08:34:44.254Z,22.80
2022-09-05T08:35:25.684Z,22.86
2022-09-05T08:36:24.679Z,22.91
2022-09-05T08:37:24.672Z,22.97
2022-09-05T08:38:24.744Z,23.07
2022-09-05T08:39:24.657Z,23.15
2022-09-05T08:40:24.728Z,23.19
2022-09-05T08:41:44.711Z,23.23
2022-09-05T08:42:25.724Z,23.28
2022-09-05T08:46:37.993Z,23.38
2022-09-05T08:46:40.130Z,23.39
2022-09-05T08:46:42.291Z,23.36
2022-09-05T08:46:43.475Z,23.36
2022-09-05T08:47:25.649Z,23.42
2022-09-05T08:48:24.543Z,23.48
2022-09-05T08:49:37.067Z,23.55
2022-09-05T08:50:27.027Z,23.58
2022-09-05T08:51:24.505Z,23.58
2022-09-05T08:52:24.499Z,23.63
2022-09-05T08:53:41.121Z,23.65
2022-09-05T08:54:25.466Z,23.66
2022-09-05T08:55:24.457Z,23.66
2022-09-05T08:56:24.436Z,23.68
2022-09-05T08:57:24.467Z,23.79
2022-09-05T08:58:24.418Z,23.88
2022-09-05T08:59:27.663Z,23.95
2022-09-05T09:00:27.524Z,24.02
2022-09-05T09:01:25.521Z,24.09
2022-09-05T09:02:47.332Z,24.20
2022-09-05T09:03:25.700Z,24.25
2022-09-05T09:04:31.184Z,24.25
2022-09-05T09:05:25.331Z,24.28
2022-09-05T09:06:26.837Z,24.22
2022-09-05T09:07:48.160Z,24.21
2022-09-05T09:08:25.300Z,24.18
2022-09-05T09:09:24.373Z,24.21
2022-09-05T09:10:25.870Z,24.24
2022-09-05T09:11:24.280Z,24.25
2022-09-05T09:12:24.272Z,24.25
2022-09-05T09:13:24.298Z,24.30
2022-09-05T09:14:30.376Z,24.34
2022-09-05T09:15:25.231Z,24.39
2022-09-05T09:16:24.302Z,24.40
2022-09-05T09:17:24.233Z,24.42
2022-09-05T09:18:24.193Z,24.42
2022-09-05T09:19:29.302Z,24.45
2022-09-05T09:20:25.163Z,24.45
2022-09-05T09:21:24.163Z,24.47
2022-09-05T09:22:24.423Z,24.55
2022-09-05T09:23:32.106Z,24.64
2022-09-05T09:24:25.132Z,24.69
2022-09-05T09:25:27.139Z,24.81
2022-09-05T09:26:24.633Z,24.91
2022-09-05T09:27:53.966Z,24.98
2022-09-05T09:28:46.806Z,24.99
2022-09-05T09:29:25.498Z,25.05
2022-09-05T09:30:24.076Z,25.08
2022-09-05T09:31:24.131Z,25.09
2022-09-05T09:32:24.057Z,25.06
2022-09-05T09:33:24.029Z,25.10
2022-09-05T09:34:24.036Z,25.05
2022-09-05T09:35:23.990Z,24.99
2022-09-05T09:36:24.599Z,25.05
2022-09-05T09:37:31.467Z,25.06
2022-09-05T09:38:25.146Z,25.15
2022-09-05T09:39:38.398Z,25.17
2022-09-05T09:40:25.020Z,25.23
2022-09-05T09:41:23.920Z,25.28
2022-09-05T09:42:33.578Z,25.32
2022-09-05T09:43:24.911Z,25.30
2022-09-05T09:44:23.892Z,25.30
2022-09-05T09:45:28.214Z,25.33
2022-09-05T09:46:23.910Z,25.36
2022-09-05T09:47:23.872Z,25.42
2022-09-05T09:48:23.915Z,25.47
2022-09-05T09:49:23.861Z,25.50
2022-09-05T09:50:23.842Z,25.55
2022-09-05T09:51:23.867Z,25.58
2022-09-05T09:52:23.825Z,25.62
2022-09-05T09:53:23.812Z,25.65
2022-09-05T09:54:23.847Z,25.65
2022-09-05T09:55:23.784Z,25.65
2022-09-05T09:56:23.775Z,25.69
2022-09-05T09:57:23.763Z,25.75
2022-09-05T09:58:23.885Z,25.83
2022-09-05T09:59:23.735Z,25.82
2022-09-05T10:00:23.705Z,25.80
2022-09-05T10:01:36.043Z,25.92
2022-09-05T10:04:30.968Z,25.99
2022-09-05T10:05:44.251Z,25.95
2022-09-05T10:09:20.485Z,25.90
2022-09-05T10:10:35.897Z,25.90
2022-09-05T10:10:50.760Z,26.05
2022-09-05T10:10:51.894Z,25.95
2022-09-05T10:10:56.272Z,26.13
2022-09-05T10:10:57.758Z,26.21
2022-09-05T10:11:25.760Z,26.09
2022-09-05T10:11:49.954Z,26.25
2022-09-05T10:12:24.684Z,26.30
2022-09-05T10:13:26.911Z,26.35
2022-09-05T10:14:47.925Z,26.43
2022-09-05T10:15:31.207Z,26.50
2022-09-05T10:16:24.582Z,26.57
2022-09-05T10:17:23.530Z,26.58
2022-09-05T10:18:24.311Z,26.63
2022-09-05T10:20:07.825Z,26.62
2022-09-05T10:20:28.769Z,26.60
2022-09-05T10:21:24.490Z,26.65
2022-09-05T10:22:38.805Z,26.67
2022-09-05T10:23:24.667Z,26.58
2022-09-05T10:24:23.452Z,26.63
2022-09-05T10:25:23.431Z,26.65
2022-09-05T10:26:23.413Z,26.65
2022-09-05T10:27:25.156Z,26.69
2022-09-05T10:28:23.408Z,26.70
2022-09-05T10:29:36.804Z,26.73
2022-09-05T10:30:28.001Z,26.72
2022-09-05T10:33:01.066Z,26.77
2022-09-05T10:35:08.404Z,26.81
2022-09-05T10:35:12.866Z,26.91
2022-09-05T10:35:17.697Z,27.02
2022-09-05T10:35:24.844Z,27.06
2022-09-05T10:36:23.446Z,27.07
2022-09-05T10:37:23.313Z,27.06
2022-09-05T10:38:23.545Z,27.12
2022-09-05T10:39:23.325Z,27.13
2022-09-05T10:40:23.267Z,27.12
2022-09-05T10:41:23.259Z,27.07
2022-09-05T10:42:23.238Z,27.03
2022-09-05T10:43:23.245Z,27.03
2022-09-05T10:44:23.222Z,26.97
2022-09-05T10:45:36.384Z,26.92
2022-09-05T10:46:49.025Z,26.88
2022-09-05T10:47:24.219Z,26.81
2022-09-05T10:48:23.180Z,26.84
2022-09-05T10:49:23.140Z,26.88
2022-09-05T10:50:23.168Z,26.89
2022-09-05T10:51:27.905Z,26.95
2022-09-05T10:52:24.121Z,26.99
2022-09-05T10:53:23.220Z,27.00
2022-09-05T10:54:23.090Z,27.06
2022-09-05T10:55:23.084Z,27.21
2022-09-05T10:56:23.093Z,27.27
2022-09-05T10:57:23.061Z,27.28
2022-09-05T10:58:31.849Z,27.27
2022-09-05T11:02:16.194Z,27.27
2022-09-05T11:02:21.203Z,27.31
2022-09-05T11:02:22.309Z,27.37
2022-09-05T11:02:33.429Z,27.37
2022-09-05T11:03:24.051Z,27.31
2022-09-05T11:04:23.153Z,27.28
2022-09-05T11:05:23.033Z,27.29
2022-09-05T11:06:24.959Z,27.32
2022-09-05T11:07:27.938Z,27.34
2022-09-05T11:08:23.930Z,27.34
2022-09-05T11:09:22.935Z,27.34
2022-09-05T11:10:22.906Z,27.27
2022-09-05T11:11:33.993Z,27.28
2022-09-05T11:12:23.896Z,27.37
2022-09-05T11:13:22.892Z,27.44
2022-09-05T11:14:27.048Z,27.44
2022-09-05T11:15:22.867Z,27.43
2022-09-05T11:16:22.895Z,27.44
2022-09-05T11:17:22.840Z,27.49
2022-09-05T11:18:22.838Z,27.55
2022-09-05T11:19:23.835Z,27.65
2022-09-05T11:20:32.299Z,27.69
2022-09-05T11:21:23.789Z,27.70
2022-09-05T11:22:24.474Z,27.72
2022-09-05T11:23:22.773Z,27.72
2022-09-05T11:24:26.732Z,27.63
2022-09-05T11:25:36.990Z,27.59
2022-09-05T11:26:23.734Z,27.55
2022-09-05T11:27:24.350Z,27.57
2022-09-05T11:28:22.733Z,27.55
2022-09-05T11:29:22.702Z,27.49
2022-09-05T11:30:30.327Z,27.54
2022-09-05T11:31:23.736Z,27.59
2022-09-05T11:34:53.050Z,27.63
2022-09-05T11:39:42.483Z,27.66
2022-09-05T11:39:47.542Z,27.49
2022-09-05T11:39:51.092Z,27.36
2022-09-05T11:40:04.229Z,27.34
2022-09-05T11:40:04.229Z,27.36
2022-09-05T11:40:06.901Z,27.31
2022-09-05T11:40:10.064Z,27.29
2022-09-05T11:40:35.091Z,27.36
2022-09-05T11:41:24.573Z,27.39
2022-09-05T11:42:22.556Z,27.44
2022-09-05T11:43:22.547Z,27.55
2022-09-05T11:44:25.501Z,27.66
2022-09-05T11:45:22.527Z,27.72
2022-09-05T11:46:22.542Z,27.70
2022-09-05T11:47:30.039Z,27.70
2022-09-05T11:48:23.542Z,27.77
2022-09-05T11:49:22.481Z,27.78
2022-09-05T11:50:22.468Z,27.82
2022-09-05T11:51:33.347Z,27.88
2022-09-05T11:52:23.447Z,27.85
2022-09-05T11:53:22.479Z,27.88
2022-09-05T11:54:22.439Z,27.87
2022-09-05T11:55:22.418Z,27.87
2022-09-05T11:56:25.513Z,27.85
2022-09-05T11:57:33.318Z,27.84
2022-09-05T11:58:44.891Z,27.82
2022-09-05T11:59:33.535Z,27.81
2022-09-05T12:00:32.896Z,27.81
2022-09-05T12:01:41.808Z,27.85
2022-09-05T12:02:24.157Z,27.90
2022-09-05T12:03:58.818Z,28.02
2022-09-05T12:04:23.316Z,28.06
2022-09-05T12:05:50.724Z,28.15
2022-09-05T12:06:23.317Z,28.18
2022-09-05T12:07:31.567Z,28.27
2022-09-05T12:08:23.308Z,28.30
2022-09-05T12:09:23.652Z,28.36
2022-09-05T12:11:23.245Z,28.41
2022-09-05T12:12:39.363Z,28.44
2022-09-05T12:13:24.511Z,28.44
2022-09-05T12:14:25.742Z,28.48
2022-09-05T12:15:22.194Z,28.52
2022-09-05T12:16:27.064Z,28.52
2022-09-05T12:17:34.959Z,28.48
2022-09-05T12:18:24.272Z,28.52
2022-09-05T12:19:22.788Z,28.56
2022-09-05T12:20:22.321Z,28.58
2022-09-05T12:21:22.888Z,28.61
2022-09-05T12:22:23.979Z,28.64
2022-09-05T12:23:47.529Z,28.62
2022-09-05T12:25:24.806Z,28.64
2022-09-05T12:27:35.797Z,28.61
2022-09-05T12:27:40.032Z,28.74
2022-09-05T12:27:45.062Z,28.66
2022-09-05T12:29:28.054Z,28.77
2022-09-05T12:29:33.554Z,28.80
2022-09-05T12:30:23.080Z,28.81
2022-09-05T12:32:19.607Z,28.80
2022-09-05T12:33:47.944Z,28.80
2022-09-05T12:36:02.466Z,28.80
2022-09-05T12:36:11.729Z,28.78
2022-09-05T12:40:25.431Z,28.81
2022-09-05T12:40:27.655Z,28.83
2022-09-05T12:40:28.817Z,28.80
2022-09-05T12:40:43.357Z,28.81
2022-09-05T12:41:34.387Z,28.88
2022-09-05T12:41:41.045Z,28.40
2022-09-05T12:41:44.118Z,28.90
2022-09-05T12:42:10.154Z,28.78
2022-09-05T12:42:30.527Z,28.88
2022-09-05T12:44:40.355Z,28.88
2022-09-05T12:44:41.591Z,28.80
2022-09-05T12:45:37.408Z,28.80
2022-09-05T12:46:24.352Z,28.83
2022-09-05T12:47:21.835Z,28.83
2022-09-05T12:48:21.884Z,28.81
2022-09-05T12:49:21.828Z,28.80
2022-09-05T12:50:21.799Z,28.80
2022-09-05T12:51:46.395Z,28.78
2022-09-05T12:52:22.788Z,28.78